createdAt,value
2017-09-23T00:00:20.742Z,14.10
2017-09-23T00:02:47.392Z,14.15
2017-09-23T00:05:13.623Z,14.19
2017-09-23T00:07:40.047Z,14.20
2017-09-23T00:10:06.367Z,14.29
2017-09-23T00:12:32.555Z,14.34
2017-09-23T00:14:58.874Z,14.37
2017-09-23T00:17:25.166Z,14.35
2017-09-23T00:19:51.592Z,14.25
2017-09-23T00:22:18.043Z,14.15
2017-09-23T00:24:44.361Z,14.15
2017-09-23T00:27:10.695Z,14.16
2017-09-23T00:29:37.032Z,14.21
2017-09-23T00:32:03.372Z,14.29
2017-09-23T00:34:29.797Z,14.31
2017-09-23T00:36:56.121Z,14.41
2017-09-23T00:39:22.382Z,14.35
2017-09-23T00:41:48.800Z,14.29
2017-09-23T00:44:15.736Z,14.30
2017-09-23T00:46:42.072Z,14.37
2017-09-23T00:49:08.400Z,14.51
2017-09-23T00:51:35.047Z,14.50
2017-09-23T00:54:01.400Z,14.49
2017-09-23T00:56:27.702Z,14.53
2017-09-23T00:58:54.249Z,14.62
2017-09-23T01:01:20.698Z,14.70
2017-09-23T01:03:47.216Z,14.70
2017-09-23T01:06:13.480Z,14.65
2017-09-23T01:08:39.800Z,14.69
2017-09-23T01:11:06.243Z,14.78
2017-09-23T01:13:33.184Z,14.84
2017-09-23T01:15:59.589Z,14.88
2017-09-23T01:18:26.038Z,14.86
2017-09-23T01:20:52.359Z,14.95
2017-09-23T01:23:18.590Z,14.97
2017-09-23T01:25:44.928Z,14.99
2017-09-23T01:28:11.274Z,15.03
2017-09-23T01:30:37.467Z,14.87
2017-09-23T01:33:03.716Z,14.83
2017-09-23T01:35:30.150Z,14.91
2017-09-23T01:37:56.584Z,14.86
2017-09-23T01:40:22.815Z,14.77
2017-09-23T01:42:49.239Z,14.78
2017-09-23T01:45:15.572Z,14.86
2017-09-23T01:47:42.011Z,14.87
2017-09-23T01:50:08.457Z,14.94
2017-09-23T01:52:34.778Z,14.97
2017-09-23T01:55:01.010Z,14.97
2017-09-23T01:57:27.437Z,14.88
2017-09-23T01:59:54.190Z,14.96
2017-09-23T02:02:20.618Z,14.97
2017-09-23T02:04:46.856Z,14.96
2017-09-23T02:07:13.170Z,14.97
2017-09-23T02:09:39.506Z,14.91
2017-09-23T02:12:06.052Z,14.86
2017-09-23T02:14:32.486Z,14.91
2017-09-23T02:16:58.809Z,14.93
2017-09-23T02:19:25.154Z,14.98
2017-09-23T02:21:51.791Z,14.89
2017-09-23T02:24:18.011Z,14.98
2017-09-23T02:26:44.355Z,14.99
2017-09-23T02:29:10.977Z,14.98
2017-09-23T02:31:37.206Z,15.05
2017-09-23T02:34:03.758Z,14.85
2017-09-23T02:36:30.104Z,14.84
2017-09-23T02:38:56.418Z,14.93
2017-09-23T02:41:22.769Z,14.91
2017-09-23T02:43:49.190Z,14.96
2017-09-23T02:46:15.836Z,14.94
2017-09-23T02:48:42.158Z,15.00
2017-09-23T02:51:08.820Z,14.98
2017-09-23T02:53:35.254Z,14.96
2017-09-23T02:56:01.561Z,14.96
2017-09-23T02:58:28.115Z,14.86
2017-09-23T03:00:54.321Z,14.88
2017-09-23T03:03:20.656Z,14.92
2017-09-23T03:05:47.310Z,14.90
2017-09-23T03:08:14.159Z,14.91
2017-09-23T03:10:40.695Z,14.87
2017-09-23T03:13:07.028Z,14.93
2017-09-23T03:15:33.768Z,14.92
2017-09-23T03:18:00.114Z,14.91
2017-09-23T03:20:26.531Z,14.99
2017-09-23T03:22:53.287Z,15.02
2017-09-23T03:25:19.806Z,15.02
2017-09-23T03:27:46.034Z,15.07
2017-09-23T03:30:12.367Z,15.08
2017-09-23T03:32:38.907Z,15.09
2017-09-23T03:35:05.442Z,15.01
2017-09-23T03:37:32.064Z,14.98
2017-09-23T03:39:58.619Z,14.99
2017-09-23T03:42:24.831Z,14.95
2017-09-23T03:44:51.706Z,14.89
2017-09-23T03:47:18.031Z,14.77
2017-09-23T03:49:44.447Z,14.74
2017-09-23T03:52:10.798Z,14.72
2017-09-23T03:54:37.539Z,14.69
2017-09-23T03:59:30.492Z,14.73
2017-09-23T04:01:56.838Z,14.75
2017-09-23T04:04:23.271Z,14.77
2017-09-23T04:06:50.207Z,14.75
2017-09-23T04:09:16.655Z,14.79
2017-09-23T04:11:42.981Z,14.80
2017-09-23T04:14:09.405Z,14.82
2017-09-23T04:16:35.848Z,14.88
2017-09-23T04:19:02.074Z,14.86
2017-09-23T04:21:28.377Z,14.80
2017-09-23T04:23:54.752Z,14.81
2017-09-23T04:26:21.055Z,14.68
2017-09-23T04:28:47.317Z,14.81
2017-09-23T04:31:13.617Z,14.81
2017-09-23T04:33:39.844Z,14.81
2017-09-23T04:36:06.210Z,14.83
2017-09-23T04:38:32.530Z,14.92
2017-09-23T04:40:59.232Z,14.97
2017-09-23T04:43:25.908Z,15.21
2017-09-23T04:45:52.141Z,15.84
2017-09-23T04:48:19.083Z,16.53
2017-09-23T04:50:45.316Z,17.22
2017-09-23T04:53:11.668Z,17.30
2017-09-23T04:55:37.983Z,17.37
2017-09-23T04:58:04.414Z,17.29
2017-09-23T05:00:30.730Z,16.76
2017-09-23T05:02:57.301Z,16.51
2017-09-23T05:05:23.850Z,16.30
2017-09-23T05:07:50.147Z,16.18
2017-09-23T05:10:16.386Z,16.86
2017-09-23T05:12:42.697Z,17.57
2017-09-23T05:15:09.452Z,18.23
2017-09-23T05:17:35.691Z,18.58
2017-09-23T05:20:02.127Z,19.16
2017-09-23T05:22:28.548Z,19.99
2017-09-23T05:24:54.880Z,20.38
2017-09-23T05:27:21.229Z,20.23
2017-09-23T05:29:47.538Z,20.43
2017-09-23T05:32:13.874Z,20.82
2017-09-23T05:34:40.223Z,21.02
2017-09-23T05:37:06.575Z,21.15
2017-09-23T05:39:32.883Z,20.76
2017-09-23T05:41:59.721Z,19.79
2017-09-23T05:44:26.186Z,19.11
2017-09-23T05:46:52.473Z,18.42
2017-09-23T05:49:18.820Z,17.93
2017-09-23T05:51:45.371Z,17.99
2017-09-23T05:54:11.799Z,17.77
2017-09-23T05:56:38.120Z,17.79
2017-09-23T05:59:04.463Z,17.58
2017-09-23T06:01:30.896Z,17.62
2017-09-23T06:03:57.394Z,17.41
2017-09-23T06:06:23.934Z,17.39
2017-09-23T06:08:50.394Z,17.42
2017-09-23T06:11:16.764Z,17.33
2017-09-23T06:13:43.077Z,17.32
2017-09-23T06:16:09.334Z,17.41
2017-09-23T06:18:35.634Z,17.60
2017-09-23T06:21:02.002Z,17.59
2017-09-23T06:23:28.317Z,17.46
2017-09-23T06:25:54.565Z,17.58
2017-09-23T06:28:20.852Z,17.87
2017-09-23T06:30:47.254Z,18.15
2017-09-23T06:33:14.210Z,18.36
2017-09-23T06:35:40.654Z,18.66
2017-09-23T06:38:07.586Z,19.64
2017-09-23T06:40:34.303Z,20.20
2017-09-23T06:45:40.403Z,21.07
2017-09-23T06:48:14.421Z,21.97
2017-09-23T06:54:05.076Z,21.24
2017-09-23T06:56:31.645Z,21.43
2017-09-23T06:58:59.834Z,20.90
2017-09-23T07:01:26.282Z,20.40
2017-09-23T07:03:57.797Z,20.31
2017-09-23T07:09:03.217Z,19.23
2017-09-23T07:11:32.644Z,19.42
2017-09-23T07:13:59.082Z,19.50
2017-09-23T07:16:25.289Z,19.00
2017-09-23T07:18:51.522Z,18.95
2017-09-23T07:21:17.853Z,18.88
2017-09-23T07:23:45.228Z,18.92
2017-09-23T07:26:11.436Z,19.86
2017-09-23T07:28:37.819Z,19.64
2017-09-23T07:31:04.536Z,19.41
2017-09-23T07:33:31.398Z,19.09
2017-09-23T07:35:57.824Z,19.49
2017-09-23T07:38:24.367Z,19.70
2017-09-23T07:40:50.650Z,20.00
2017-09-23T07:43:16.986Z,19.95
2017-09-23T07:45:43.315Z,19.82
2017-09-23T07:48:09.698Z,20.38
2017-09-23T07:50:36.448Z,20.24
2017-09-23T07:53:02.791Z,20.60
2017-09-23T07:55:29.113Z,21.23
2017-09-23T07:57:55.359Z,21.16
2017-09-23T08:00:21.615Z,21.26
2017-09-23T08:02:48.088Z,22.05
2017-09-23T08:05:14.636Z,21.46
2017-09-23T08:07:40.934Z,21.07
2017-09-23T08:10:07.253Z,20.09
2017-09-23T08:12:34.124Z,20.97
2017-09-23T08:15:01.080Z,21.72
2017-09-23T08:17:27.505Z,22.39
2017-09-23T08:19:53.923Z,23.41
2017-09-23T08:22:20.688Z,24.14
2017-09-23T08:24:47.004Z,24.64
2017-09-23T08:27:13.664Z,24.83
2017-09-23T08:29:40.192Z,23.65
2017-09-23T08:32:06.492Z,22.40
2017-09-23T08:34:32.867Z,21.62
2017-09-23T08:36:59.176Z,22.53
2017-09-23T08:39:25.419Z,22.93
2017-09-23T08:41:51.757Z,22.72
2017-09-23T08:44:18.102Z,22.10
2017-09-23T08:46:44.345Z,21.95
2017-09-23T08:49:10.586Z,22.06
2017-09-23T08:51:36.833Z,22.29
2017-09-23T08:54:03.041Z,22.01
2017-09-23T08:56:29.239Z,21.60
2017-09-23T08:58:55.738Z,21.10
2017-09-23T09:01:23.297Z,21.62
2017-09-23T09:03:50.022Z,22.63
2017-09-23T09:06:16.289Z,23.54
2017-09-23T09:08:42.522Z,23.29
2017-09-23T09:11:08.857Z,22.42
2017-09-23T09:13:35.198Z,21.77
2017-09-23T09:16:01.851Z,21.12
2017-09-23T09:18:28.145Z,20.72
2017-09-23T09:20:55.013Z,20.82
2017-09-23T09:23:22.174Z,22.22
2017-09-23T09:25:48.508Z,23.48
2017-09-23T09:28:14.834Z,22.38
2017-09-23T09:30:41.566Z,22.06
2017-09-23T09:33:08.502Z,21.12
2017-09-23T09:35:34.957Z,22.22
2017-09-23T09:38:01.370Z,23.01
2017-09-23T09:40:27.929Z,21.96
2017-09-23T09:42:54.254Z,21.84
2017-09-23T09:45:20.677Z,22.51
2017-09-23T09:47:47.004Z,21.85
2017-09-23T09:50:13.342Z,21.67
2017-09-23T09:52:40.405Z,22.27
2017-09-23T09:55:06.613Z,22.98
2017-09-23T09:57:32.965Z,22.01
2017-09-23T10:00:00.096Z,22.67
2017-09-23T10:02:26.327Z,22.60
2017-09-23T10:04:52.535Z,21.84
2017-09-23T10:07:18.911Z,21.51
2017-09-23T10:09:45.116Z,22.24
2017-09-23T10:12:11.461Z,22.06
2017-09-23T10:14:37.906Z,22.47
2017-09-23T10:17:04.740Z,21.99
2017-09-23T10:19:31.808Z,21.80
2017-09-23T10:22:03.136Z,21.77
2017-09-23T10:24:29.490Z,23.09
2017-09-23T10:26:56.423Z,24.47
2017-09-23T10:29:22.653Z,24.99
2017-09-23T10:31:49.192Z,25.14
2017-09-23T10:34:15.499Z,24.24
2017-09-23T10:36:41.760Z,23.33
2017-09-23T10:39:08.275Z,22.42
2017-09-23T10:41:34.541Z,22.03
2017-09-23T10:44:01.005Z,21.85
2017-09-23T10:46:27.273Z,21.71
2017-09-23T10:48:54.123Z,21.83
2017-09-23T10:51:20.580Z,21.99
2017-09-23T10:53:46.919Z,22.36
2017-09-23T10:56:13.512Z,21.78
2017-09-23T10:58:39.873Z,21.57
2017-09-23T11:01:06.288Z,22.02
2017-09-23T11:03:32.548Z,22.66
2017-09-23T11:05:58.881Z,23.35
2017-09-23T11:08:28.541Z,24.12
2017-09-23T11:10:55.932Z,24.35
2017-09-23T11:13:22.263Z,24.75
2017-09-23T11:15:49.116Z,25.43
2017-09-23T11:18:15.562Z,24.51
2017-09-23T11:20:42.086Z,23.85
2017-09-23T11:23:08.539Z,22.70
2017-09-23T11:25:35.063Z,22.20
2017-09-23T11:28:01.792Z,22.09
2017-09-23T11:30:28.030Z,21.94
2017-09-23T11:32:54.356Z,21.97
2017-09-23T11:35:21.897Z,22.16
2017-09-23T11:37:48.140Z,22.19
2017-09-23T11:40:14.671Z,22.11
2017-09-23T11:42:40.902Z,21.99
2017-09-23T11:45:07.232Z,22.02
2017-09-23T11:47:33.564Z,22.25
2017-09-23T11:49:59.901Z,22.26
2017-09-23T11:52:26.342Z,22.49
2017-09-23T11:54:52.792Z,22.50
2017-09-23T11:57:19.116Z,22.64
2017-09-23T11:59:45.859Z,22.61
2017-09-23T12:02:14.741Z,22.57
2017-09-23T12:04:41.168Z,22.18
2017-09-23T12:07:07.419Z,22.37
2017-09-23T12:09:34.346Z,22.55
2017-09-23T12:12:00.772Z,22.56
2017-09-23T12:14:27.112Z,22.64
2017-09-23T12:16:53.649Z,23.07
2017-09-23T12:19:19.864Z,24.08
2017-09-23T12:21:46.367Z,24.37
2017-09-23T12:24:12.841Z,24.83
2017-09-23T12:26:39.407Z,23.88
2017-09-23T12:29:05.619Z,23.32
2017-09-23T12:31:32.511Z,23.11
2017-09-23T12:33:58.901Z,23.14
2017-09-23T12:36:25.249Z,22.81
2017-09-23T12:38:51.586Z,22.63
2017-09-23T12:41:19.038Z,22.37
2017-09-23T12:43:45.349Z,22.36
2017-09-23T12:46:11.784Z,23.26
2017-09-23T12:48:38.122Z,24.87
2017-09-23T12:51:04.656Z,26.72
2017-09-23T12:53:30.989Z,26.58
2017-09-23T12:55:57.512Z,27.88
2017-09-23T12:58:23.751Z,26.51
2017-09-23T13:00:50.306Z,24.65
2017-09-23T13:03:16.742Z,23.50
2017-09-23T13:05:43.995Z,23.12
2017-09-23T13:08:10.299Z,22.85
2017-09-23T13:10:36.653Z,22.87
2017-09-23T13:13:03.988Z,22.85
2017-09-23T13:15:30.331Z,24.56
2017-09-23T13:17:56.756Z,25.97
2017-09-23T13:20:23.204Z,25.83
2017-09-23T13:22:49.523Z,26.22
2017-09-23T13:25:15.861Z,25.77
2017-09-23T13:27:42.596Z,25.17
2017-09-23T13:30:08.938Z,24.63
2017-09-23T13:32:35.104Z,25.02
2017-09-23T13:35:01.973Z,24.79
2017-09-23T13:37:28.246Z,24.58
2017-09-23T13:39:54.559Z,24.11
2017-09-23T13:42:21.001Z,24.08
2017-09-23T13:44:47.324Z,24.72
2017-09-23T13:47:13.590Z,25.50
2017-09-23T13:49:40.110Z,26.50
2017-09-23T13:52:06.538Z,26.71
2017-09-23T13:54:33.183Z,27.14
2017-09-23T13:56:59.808Z,26.40
2017-09-23T13:59:26.664Z,25.27
2017-09-23T14:01:53.093Z,24.60
2017-09-23T14:04:19.440Z,23.82
2017-09-23T14:06:45.851Z,23.60
2017-09-23T14:09:12.114Z,23.27
2017-09-23T14:11:38.396Z,22.86
2017-09-23T14:14:05.368Z,22.80
2017-09-23T14:16:31.669Z,22.41
2017-09-23T14:18:58.813Z,22.30
2017-09-23T14:21:25.389Z,22.25
2017-09-23T14:23:51.658Z,22.05
2017-09-23T14:26:18.477Z,22.16
2017-09-23T14:28:45.114Z,22.19
2017-09-23T14:31:11.402Z,21.92
2017-09-23T14:33:37.709Z,21.96
2017-09-23T14:36:04.979Z,21.94
2017-09-23T14:38:32.098Z,22.01
2017-09-23T14:40:59.530Z,21.97
2017-09-23T14:43:25.813Z,21.98
2017-09-23T14:45:52.393Z,23.02
2017-09-23T14:48:19.216Z,24.13
2017-09-23T14:50:45.491Z,24.62
2017-09-23T14:53:12.194Z,24.69
2017-09-23T14:55:38.558Z,25.39
2017-09-23T14:58:06.404Z,26.19
2017-09-23T15:00:32.678Z,25.24
2017-09-23T15:02:58.942Z,24.48
2017-09-23T15:05:25.185Z,23.24
2017-09-23T15:07:52.619Z,22.86
2017-09-23T15:10:19.342Z,22.60
2017-09-23T15:12:45.706Z,22.29
2017-09-23T15:15:11.968Z,21.92
2017-09-23T15:17:39.327Z,21.80
2017-09-23T15:20:05.776Z,21.58
2017-09-23T15:22:32.090Z,21.36
2017-09-23T15:24:59.137Z,21.17
2017-09-23T15:27:26.505Z,21.11
2017-09-23T15:29:57.123Z,20.96
2017-09-23T15:32:23.504Z,20.95
2017-09-23T15:34:49.927Z,20.95
2017-09-23T15:37:16.243Z,20.89
2017-09-23T15:39:42.580Z,20.88
2017-09-23T15:42:09.309Z,21.00
2017-09-23T15:44:36.051Z,21.11
2017-09-23T15:47:02.913Z,20.95
2017-09-23T15:49:29.619Z,21.03
2017-09-23T15:51:55.970Z,21.05
2017-09-23T15:54:23.027Z,21.06
2017-09-23T15:56:49.837Z,21.09
2017-09-23T15:59:16.688Z,21.14
2017-09-23T16:01:43.235Z,21.07
2017-09-23T16:04:10.309Z,21.04
2017-09-23T16:06:38.420Z,20.98
2017-09-23T16:09:05.407Z,20.91
2017-09-23T16:11:32.505Z,20.83
2017-09-23T16:13:58.693Z,20.74
2017-09-23T16:16:25.036Z,20.63
2017-09-23T16:18:51.453Z,20.23
2017-09-23T16:21:17.767Z,20.16
2017-09-23T16:23:44.102Z,20.12
2017-09-23T16:26:10.586Z,19.89
2017-09-23T16:28:39.042Z,19.88
2017-09-23T16:31:05.631Z,19.85
2017-09-23T16:33:32.006Z,19.77
2017-09-23T16:35:58.339Z,19.72
2017-09-23T16:38:25.550Z,19.64
2017-09-23T16:40:52.021Z,19.61
2017-09-23T16:43:18.382Z,19.59
2017-09-23T16:45:44.745Z,19.46
2017-09-23T16:48:13.159Z,19.34
2017-09-23T16:50:44.783Z,19.26
2017-09-23T16:53:11.157Z,19.22
2017-09-23T16:55:38.804Z,19.04
2017-09-23T16:58:05.252Z,18.90
2017-09-23T17:13:44.930Z,17.93
2017-09-23T17:16:11.767Z,17.82
2017-09-23T17:18:38.197Z,17.69
2017-09-23T17:21:06.232Z,17.55
2017-09-23T17:23:32.949Z,17.44
2017-09-23T17:26:05.246Z,17.36
2017-09-23T17:28:32.296Z,17.31
2017-09-23T17:30:58.549Z,17.35
2017-09-23T17:33:25.599Z,17.42
2017-09-23T17:35:52.700Z,17.46
2017-09-23T17:38:19.931Z,17.50
2017-09-23T17:40:48.365Z,17.46
2017-09-23T17:43:17.510Z,17.50
2017-09-23T17:45:44.876Z,17.52
2017-09-23T17:48:11.257Z,17.52
2017-09-23T17:50:38.437Z,17.16
2017-09-23T17:53:04.651Z,16.99
2017-09-23T17:55:31.423Z,16.83
2017-09-23T17:57:59.594Z,16.65
2017-09-23T18:00:25.918Z,16.55
2017-09-23T18:02:53.631Z,16.38
2017-09-23T18:05:23.088Z,16.20
2017-09-23T18:07:50.052Z,16.05
2017-09-23T18:10:18.470Z,15.98
2017-09-23T18:12:44.888Z,15.95
2017-09-23T18:15:12.745Z,15.96
2017-09-23T18:17:39.365Z,15.97
2017-09-23T18:20:06.070Z,15.93
2017-09-23T18:22:32.782Z,15.85
2017-09-23T18:25:01.518Z,15.70
2017-09-23T18:27:30.919Z,15.66
2017-09-23T18:29:57.465Z,15.67
2017-09-23T18:32:23.887Z,15.49
2017-09-23T18:34:50.642Z,15.42
2017-09-23T18:37:17.038Z,15.32
2017-09-23T18:39:46.505Z,15.22
2017-09-23T18:42:12.914Z,15.14
2017-09-23T18:44:39.834Z,15.15
2017-09-23T18:47:09.263Z,15.16
2017-09-23T18:49:35.593Z,15.10
2017-09-23T18:52:02.838Z,15.05
2017-09-23T18:54:30.827Z,14.99
2017-09-23T18:57:00.951Z,14.95
2017-09-23T18:59:27.471Z,14.86
2017-09-23T19:01:56.858Z,14.80
2017-09-23T19:04:23.467Z,14.71
2017-09-23T19:06:50.256Z,14.67
2017-09-23T19:09:17.530Z,14.76
2017-09-23T19:11:43.852Z,14.69
2017-09-23T19:14:10.178Z,14.63
2017-09-23T19:16:38.252Z,14.53
2017-09-23T19:19:04.570Z,14.41
2017-09-23T19:21:32.004Z,14.28
2017-09-23T19:23:59.702Z,14.19
2017-09-23T19:26:27.042Z,14.17
2017-09-23T19:28:54.001Z,14.20
2017-09-23T19:31:21.070Z,14.23
2017-09-23T19:33:47.395Z,14.26
2017-09-23T19:36:13.708Z,14.13
2017-09-23T19:38:41.893Z,14.10
2017-09-23T19:41:08.419Z,14.11
2017-09-23T19:43:34.757Z,14.13
2017-09-23T19:46:01.114Z,14.10
2017-09-23T19:48:27.626Z,14.01
2017-09-23T19:50:54.603Z,14.07
2017-09-23T19:53:21.725Z,14.03
2017-09-23T19:55:48.057Z,13.95
2017-09-23T19:58:14.907Z,13.81
2017-09-23T20:00:41.569Z,13.71
2017-09-23T20:03:08.072Z,13.52
2017-09-23T20:05:34.625Z,13.32
2017-09-23T20:08:01.487Z,13.25
2017-09-23T20:10:28.386Z,13.23
2017-09-23T20:12:54.830Z,13.11
2017-09-23T20:15:23.733Z,13.03
2017-09-23T20:17:52.162Z,13.13
2017-09-23T20:20:21.816Z,13.23
2017-09-23T20:22:48.683Z,13.30
2017-09-23T20:25:15.095Z,13.26
2017-09-23T20:27:41.987Z,13.13
2017-09-23T20:30:08.784Z,13.03
2017-09-23T20:32:35.933Z,12.90
2017-09-23T20:35:03.086Z,12.88
2017-09-23T20:37:29.528Z,12.86
2017-09-23T20:39:55.849Z,12.87
2017-09-23T20:42:22.515Z,12.78
2017-09-23T20:44:55.174Z,12.74
2017-09-23T20:47:22.349Z,12.71
2017-09-23T20:49:50.629Z,12.55
2017-09-23T20:52:17.167Z,12.52
2017-09-23T20:54:46.157Z,12.50
2017-09-23T20:57:12.966Z,12.61
2017-09-23T20:59:39.836Z,12.72
2017-09-23T21:02:06.172Z,12.72
2017-09-23T21:04:33.031Z,12.71
2017-09-23T21:07:00.796Z,12.65
2017-09-23T21:09:27.604Z,12.65
2017-09-23T21:11:53.929Z,12.68
2017-09-23T21:14:21.288Z,12.51
2017-09-23T21:16:49.444Z,12.24
2017-09-23T21:19:19.155Z,12.09
2017-09-23T21:21:48.659Z,12.04
2017-09-23T21:24:18.488Z,12.01
2017-09-23T21:26:45.153Z,11.96
2017-09-23T21:29:13.336Z,11.83
2017-09-23T21:31:39.951Z,11.78
2017-09-23T21:34:06.601Z,11.73
2017-09-23T21:36:33.859Z,11.75
2017-09-23T21:39:00.824Z,11.70
2017-09-23T21:41:27.231Z,11.63
2017-09-23T21:43:54.193Z,11.55
2017-09-23T21:46:21.172Z,11.49
2017-09-23T21:48:48.489Z,11.31
2017-09-23T21:51:15.244Z,11.56
2017-09-23T21:53:42.204Z,11.53
2017-09-23T21:56:08.595Z,11.47
2017-09-23T21:58:34.928Z,11.38
2017-09-23T22:01:10.289Z,11.34
2017-09-23T22:03:38.250Z,11.29
2017-09-23T22:06:05.413Z,11.29
2017-09-23T22:08:34.323Z,11.30
2017-09-23T22:11:01.766Z,11.26
2017-09-23T22:13:28.397Z,11.23
2017-09-23T22:15:57.481Z,11.24
2017-09-23T22:18:24.132Z,11.27
2017-09-23T22:20:50.468Z,11.32
2017-09-23T22:23:16.798Z,11.19
2017-09-23T22:25:43.740Z,11.22
2017-09-23T22:28:11.605Z,11.14
2017-09-23T22:30:38.562Z,11.04
2017-09-23T22:33:05.312Z,11.03
2017-09-23T22:35:31.631Z,11.04
2017-09-23T22:37:59.506Z,11.00
2017-09-23T22:40:26.159Z,10.98
2017-09-23T22:42:52.352Z,10.95
2017-09-23T22:45:22.269Z,10.96
2017-09-23T22:47:50.466Z,10.92
2017-09-23T22:50:24.820Z,10.82
2017-09-23T22:52:51.097Z,10.80
2017-09-23T22:55:17.436Z,10.76
2017-09-23T22:57:43.991Z,10.77
2017-09-23T23:00:10.604Z,10.70
2017-09-23T23:02:36.952Z,10.62
2017-09-23T23:05:04.938Z,10.51
2017-09-23T23:07:33.507Z,10.45
2017-09-23T23:10:00.034Z,10.43
2017-09-23T23:12:26.979Z,10.41
2017-09-23T23:14:53.430Z,10.29
2017-09-23T23:17:19.759Z,10.27
2017-09-23T23:19:46.092Z,10.29
2017-09-23T23:22:12.863Z,10.35
2017-09-23T23:24:39.258Z,10.41
2017-09-23T23:27:06.015Z,10.46
2017-09-23T23:29:33.772Z,10.56
2017-09-23T23:32:01.329Z,10.62
2017-09-23T23:34:27.650Z,10.58
2017-09-23T23:36:54.016Z,10.66
2017-09-23T23:39:20.309Z,10.65
2017-09-23T23:41:48.510Z,10.62
2017-09-23T23:44:15.767Z,10.49
2017-09-23T23:46:41.969Z,10.28
2017-09-23T23:49:08.315Z,10.33
2017-09-23T23:51:37.616Z,10.31
2017-09-23T23:54:03.948Z,10.25
2017-09-23T23:56:30.795Z,10.14
2017-09-23T23:59:05.523Z,10.07
